sensor_id;sensor_type;location;lat;lon;timestamp;pressure;altitude;pressure_sealevel;temperature
65290;BMP180;51893;59.754;10.110;2023-04-25T00:01:22;99929.60;;;3.50
65290;BMP180;51893;59.754;10.110;2023-04-25T00:03:50;99926.60;;;3.50
65290;BMP180;51893;59.754;10.110;2023-04-25T00:06:19;99930.00;;;3.50
65290;BMP180;51893;59.754;10.110;2023-04-25T00:08:48;99924.80;;;3.50
65290;BMP180;51893;59.754;10.110;2023-04-25T00:11:18;99923.60;;;3.50
65290;BMP180;51893;59.754;10.110;2023-04-25T00:13:48;99923.20;;;3.50
65290;BMP180;51893;59.754;10.110;2023-04-25T00:16:18;99924.00;;;3.50
65290;BMP180;51893;59.754;10.110;2023-04-25T00:18:49;99923.40;;;3.58
65290;BMP180;51893;59.754;10.110;2023-04-25T00:21:20;99916.60;;;3.60
65290;BMP180;51893;59.754;10.110;2023-04-25T00:23:48;99915.40;;;3.60
65290;BMP180;51893;59.754;10.110;2023-04-25T00:26:16;99911.40;;;3.58
65290;BMP180;51893;59.754;10.110;2023-04-25T00:28:44;99910.60;;;3.58
65290;BMP180;51893;59.754;10.110;2023-04-25T00:31:13;99906.40;;;3.60
65290;BMP180;51893;59.754;10.110;2023-04-25T00:33:43;99915.00;;;3.60
65290;BMP180;51893;59.754;10.110;2023-04-25T00:36:15;99902.60;;;3.64
65290;BMP180;51893;59.754;10.110;2023-04-25T00:38:45;99905.00;;;3.70
65290;BMP180;51893;59.754;10.110;2023-04-25T00:41:16;99903.80;;;3.70
65290;BMP180;51893;59.754;10.110;2023-04-25T00:43:46;99907.20;;;3.70
65290;BMP180;51893;59.754;10.110;2023-04-25T00:46:16;99912.80;;;3.70
65290;BMP180;51893;59.754;10.110;2023-04-25T00:48:45;99907.60;;;3.70
65290;BMP180;51893;59.754;10.110;2023-04-25T00:51:20;99912.00;;;3.70
65290;BMP180;51893;59.754;10.110;2023-04-25T00:53:51;99906.40;;;3.70
65290;BMP180;51893;59.754;10.110;2023-04-25T00:56:20;99905.00;;;3.70
65290;BMP180;51893;59.754;10.110;2023-04-25T00:58:50;99901.60;;;3.70
65290;BMP180;51893;59.754;10.110;2023-04-25T01:01:22;99902.20;;;3.70
65290;BMP180;51893;59.754;10.110;2023-04-25T01:03:52;99896.40;;;3.80
65290;BMP180;51893;59.754;10.110;2023-04-25T01:06:21;99898.00;;;3.78
65290;BMP180;51893;59.754;10.110;2023-04-25T01:08:51;99900.00;;;3.80
65290;BMP180;51893;59.754;10.110;2023-04-25T01:11:20;99903.20;;;3.80
65290;BMP180;51893;59.754;10.110;2023-04-25T01:13:49;99907.40;;;3.80
65290;BMP180;51893;59.754;10.110;2023-04-25T01:16:17;99908.40;;;3.80
65290;BMP180;51893;59.754;10.110;2023-04-25T01:18:48;99911.00;;;3.80
65290;BMP180;51893;59.754;10.110;2023-04-25T01:21:17;99909.40;;;3.84
65290;BMP180;51893;59.754;10.110;2023-04-25T01:23:46;99912.40;;;3.86
65290;BMP180;51893;59.754;10.110;2023-04-25T01:26:15;99912.80;;;3.80
65290;BMP180;51893;59.754;10.110;2023-04-25T01:28:44;99914.80;;;3.80
65290;BMP180;51893;59.754;10.110;2023-04-25T01:31:15;99916.40;;;3.80
65290;BMP180;51893;59.754;10.110;2023-04-25T01:33:44;99913.20;;;3.80
65290;BMP180;51893;59.754;10.110;2023-04-25T01:36:14;99910.40;;;3.80
65290;BMP180;51893;59.754;10.110;2023-04-25T01:38:46;99910.20;;;3.80
65290;BMP180;51893;59.754;10.110;2023-04-25T01:41:15;99908.40;;;3.80
65290;BMP180;51893;59.754;10.110;2023-04-25T01:43:46;99907.00;;;3.70
65290;BMP180;51893;59.754;10.110;2023-04-25T01:46:14;99903.20;;;3.70
65290;BMP180;51893;59.754;10.110;2023-04-25T01:48:42;99904.00;;;3.66
65290;BMP180;51893;59.754;10.110;2023-04-25T01:51:10;99903.00;;;3.60
65290;BMP180;51893;59.754;10.110;2023-04-25T01:53:39;99902.80;;;3.60
65290;BMP180;51893;59.754;10.110;2023-04-25T01:56:07;99907.20;;;3.62
65290;BMP180;51893;59.754;10.110;2023-04-25T01:58:35;99903.80;;;3.60
65290;BMP180;51893;59.754;10.110;2023-04-25T02:01:03;99902.20;;;3.60
65290;BMP180;51893;59.754;10.110;2023-04-25T02:03:34;99902.40;;;3.60
65290;BMP180;51893;59.754;10.110;2023-04-25T02:06:03;99904.60;;;3.60
65290;BMP180;51893;59.754;10.110;2023-04-25T02:08:30;99903.40;;;3.60
65290;BMP180;51893;59.754;10.110;2023-04-25T02:10:59;99908.20;;;3.60
65290;BMP180;51893;59.754;10.110;2023-04-25T02:13:27;99902.00;;;3.60
65290;BMP180;51893;59.754;10.110;2023-04-25T02:15:55;99902.60;;;3.58
65290;BMP180;51893;59.754;10.110;2023-04-25T02:18:24;99907.60;;;3.50
65290;BMP180;51893;59.754;10.110;2023-04-25T02:20:54;99906.80;;;3.50
65290;BMP180;51893;59.754;10.110;2023-04-25T02:23:22;99902.00;;;3.50
65290;BMP180;51893;59.754;10.110;2023-04-25T02:25:50;99901.80;;;3.50
65290;BMP180;51893;59.754;10.110;2023-04-25T02:28:18;99898.00;;;3.50
65290;BMP180;51893;59.754;10.110;2023-04-25T02:30:46;99901.80;;;3.50
65290;BMP180;51893;59.754;10.110;2023-04-25T02:33:15;99903.00;;;3.50
65290;BMP180;51893;59.754;10.110;2023-04-25T02:35:44;99902.80;;;3.40
65290;BMP180;51893;59.754;10.110;2023-04-25T02:38:15;99904.20;;;3.44
65290;BMP180;51893;59.754;10.110;2023-04-25T02:40:44;99899.60;;;3.50
65290;BMP180;51893;59.754;10.110;2023-04-25T02:43:12;99903.80;;;3.50
65290;BMP180;51893;59.754;10.110;2023-04-25T02:45:40;99898.80;;;3.40
65290;BMP180;51893;59.754;10.110;2023-04-25T02:48:14;99897.80;;;3.40
65290;BMP180;51893;59.754;10.110;2023-04-25T02:50:42;99897.60;;;3.40
65290;BMP180;51893;59.754;10.110;2023-04-25T02:53:11;99893.40;;;3.40
65290;BMP180;51893;59.754;10.110;2023-04-25T02:55:39;99889.40;;;3.40
65290;BMP180;51893;59.754;10.110;2023-04-25T02:58:07;99894.00;;;3.50
65290;BMP180;51893;59.754;10.110;2023-04-25T03:00:35;99895.00;;;3.50
65290;BMP180;51893;59.754;10.110;2023-04-25T03:03:05;99893.60;;;3.50
65290;BMP180;51893;59.754;10.110;2023-04-25T03:05:34;99888.20;;;3.50
65290;BMP180;51893;59.754;10.110;2023-04-25T03:08:02;99888.40;;;3.50
65290;BMP180;51893;59.754;10.110;2023-04-25T03:10:30;99886.60;;;3.50
65290;BMP180;51893;59.754;10.110;2023-04-25T03:12:58;99890.40;;;3.50
65290;BMP180;51893;59.754;10.110;2023-04-25T03:15:27;99882.80;;;3.48
65290;BMP180;51893;59.754;10.110;2023-04-25T03:17:55;99884.00;;;3.40
65290;BMP180;51893;59.754;10.110;2023-04-25T03:20:23;99887.20;;;3.40
65290;BMP180;51893;59.754;10.110;2023-04-25T03:22:52;99888.00;;;3.40
65290;BMP180;51893;59.754;10.110;2023-04-25T03:25:23;99885.40;;;3.40
65290;BMP180;51893;59.754;10.110;2023-04-25T03:27:51;99885.60;;;3.30
65290;BMP180;51893;59.754;10.110;2023-04-25T03:30:24;99882.40;;;3.30
65290;BMP180;51893;59.754;10.110;2023-04-25T03:32:52;99880.40;;;3.30
65290;BMP180;51893;59.754;10.110;2023-04-25T03:35:23;99881.60;;;3.28
65290;BMP180;51893;59.754;10.110;2023-04-25T03:37:52;99875.80;;;3.30
65290;BMP180;51893;59.754;10.110;2023-04-25T03:40:21;99876.40;;;3.30
65290;BMP180;51893;59.754;10.110;2023-04-25T03:42:49;99881.20;;;3.30
65290;BMP180;51893;59.754;10.110;2023-04-25T03:45:16;99875.60;;;3.30
65290;BMP180;51893;59.754;10.110;2023-04-25T03:47:45;99881.20;;;3.30
65290;BMP180;51893;59.754;10.110;2023-04-25T03:50:13;99879.40;;;3.30
65290;BMP180;51893;59.754;10.110;2023-04-25T03:52:43;99881.60;;;3.30
65290;BMP180;51893;59.754;10.110;2023-04-25T03:55:12;99880.40;;;3.30
65290;BMP180;51893;59.754;10.110;2023-04-25T03:57:39;99879.60;;;3.30
65290;BMP180;51893;59.754;10.110;2023-04-25T04:00:09;99878.00;;;3.30
65290;BMP180;51893;59.754;10.110;2023-04-25T04:02:37;99878.60;;;3.28
65290;BMP180;51893;59.754;10.110;2023-04-25T04:05:08;99885.20;;;3.20
65290;BMP180;51893;59.754;10.110;2023-04-25T04:07:36;99887.00;;;3.20
65290;BMP180;51893;59.754;10.110;2023-04-25T04:10:10;99883.40;;;3.20
65290;BMP180;51893;59.754;10.110;2023-04-25T04:12:39;99888.60;;;3.12
65290;BMP180;51893;59.754;10.110;2023-04-25T04:15:09;99883.40;;;3.10
65290;BMP180;51893;59.754;10.110;2023-04-25T04:17:38;99885.80;;;3.20
65290;BMP180;51893;59.754;10.110;2023-04-25T04:20:07;99885.20;;;3.20
65290;BMP180;51893;59.754;10.110;2023-04-25T04:22:36;99886.80;;;3.20
65290;BMP180;51893;59.754;10.110;2023-04-25T04:25:05;99887.00;;;3.20
65290;BMP180;51893;59.754;10.110;2023-04-25T04:27:33;99887.60;;;3.20
65290;BMP180;51893;59.754;10.110;2023-04-25T04:30:02;99887.80;;;3.20
65290;BMP180;51893;59.754;10.110;2023-04-25T04:32:30;99888.60;;;3.20
65290;BMP180;51893;59.754;10.110;2023-04-25T04:35:02;99885.80;;;3.20
65290;BMP180;51893;59.754;10.110;2023-04-25T04:37:31;99889.00;;;3.20
65290;BMP180;51893;59.754;10.110;2023-04-25T04:39:59;99893.40;;;3.20
65290;BMP180;51893;59.754;10.110;2023-04-25T04:42:29;99888.40;;;3.20
65290;BMP180;51893;59.754;10.110;2023-04-25T04:44:59;99891.00;;;3.20
65290;BMP180;51893;59.754;10.110;2023-04-25T04:47:29;99889.60;;;3.20
65290;BMP180;51893;59.754;10.110;2023-04-25T04:50:02;99891.80;;;3.20
65290;BMP180;51893;59.754;10.110;2023-04-25T04:52:31;99892.20;;;3.20
65290;BMP180;51893;59.754;10.110;2023-04-25T04:54:59;99891.40;;;3.20
65290;BMP180;51893;59.754;10.110;2023-04-25T04:57:29;99891.00;;;3.30
65290;BMP180;51893;59.754;10.110;2023-04-25T04:59:59;99893.40;;;3.20
65290;BMP180;51893;59.754;10.110;2023-04-25T05:02:28;99898.80;;;3.14
65290;BMP180;51893;59.754;10.110;2023-04-25T05:05:05;99893.00;;;3.10
65290;BMP180;51893;59.754;10.110;2023-04-25T05:07:36;99901.60;;;3.00
65290;BMP180;51893;59.754;10.110;2023-04-25T05:10:05;99902.00;;;3.00
65290;BMP180;51893;59.754;10.110;2023-04-25T05:12:37;99900.20;;;3.00
65290;BMP180;51893;59.754;10.110;2023-04-25T05:15:06;99903.20;;;3.02
65290;BMP180;51893;59.754;10.110;2023-04-25T05:17:35;99898.00;;;3.10
65290;BMP180;51893;59.754;10.110;2023-04-25T05:20:07;99898.40;;;3.10
65290;BMP180;51893;59.754;10.110;2023-04-25T05:22:39;99901.40;;;3.10
65290;BMP180;51893;59.754;10.110;2023-04-25T05:25:09;99904.80;;;3.12
65290;BMP180;51893;59.754;10.110;2023-04-25T05:27:38;99902.20;;;3.10
65290;BMP180;51893;59.754;10.110;2023-04-25T05:30:07;99908.60;;;3.00
65290;BMP180;51893;59.754;10.110;2023-04-25T05:32:37;99904.20;;;3.00
65290;BMP180;51893;59.754;10.110;2023-04-25T05:35:06;99905.20;;;3.00
65290;BMP180;51893;59.754;10.110;2023-04-25T05:37:35;99906.00;;;3.00
65290;BMP180;51893;59.754;10.110;2023-04-25T05:40:05;99901.00;;;3.00
65290;BMP180;51893;59.754;10.110;2023-04-25T05:42:34;99907.60;;;3.10
65290;BMP180;51893;59.754;10.110;2023-04-25T05:45:04;99899.00;;;3.10
65290;BMP180;51893;59.754;10.110;2023-04-25T05:47:33;99902.80;;;3.10
65290;BMP180;51893;59.754;10.110;2023-04-25T05:50:01;99905.00;;;3.20
65290;BMP180;51893;59.754;10.110;2023-04-25T05:52:29;99902.80;;;3.20
65290;BMP180;51893;59.754;10.110;2023-04-25T05:54:57;99905.40;;;3.20
65290;BMP180;51893;59.754;10.110;2023-04-25T05:57:27;99898.40;;;3.20
65290;BMP180;51893;59.754;10.110;2023-04-25T05:59:55;99901.60;;;3.20
65290;BMP180;51893;59.754;10.110;2023-04-25T06:02:23;99897.80;;;3.30
65290;BMP180;51893;59.754;10.110;2023-04-25T06:04:52;99900.60;;;3.40
65290;BMP180;51893;59.754;10.110;2023-04-25T06:07:24;99894.20;;;3.40
65290;BMP180;51893;59.754;10.110;2023-04-25T06:09:53;99907.80;;;3.40
65290;BMP180;51893;59.754;10.110;2023-04-25T06:12:21;99897.40;;;3.40
65290;BMP180;51893;59.754;10.110;2023-04-25T06:14:49;99901.40;;;3.40
65290;BMP180;51893;59.754;10.110;2023-04-25T06:17:19;99902.60;;;3.30
65290;BMP180;51893;59.754;10.110;2023-04-25T06:19:47;99902.60;;;3.30
65290;BMP180;51893;59.754;10.110;2023-04-25T06:22:18;99904.20;;;3.30
65290;BMP180;51893;59.754;10.110;2023-04-25T06:24:48;99903.20;;;3.30
65290;BMP180;51893;59.754;10.110;2023-04-25T06:27:16;99904.20;;;3.40
65290;BMP180;51893;59.754;10.110;2023-04-25T06:29:45;99907.40;;;3.44
65290;BMP180;51893;59.754;10.110;2023-04-25T06:32:14;99902.60;;;3.50
65290;BMP180;51893;59.754;10.110;2023-04-25T06:34:44;99906.00;;;3.42
65290;BMP180;51893;59.754;10.110;2023-04-25T06:37:12;99901.80;;;3.50
65290;BMP180;51893;59.754;10.110;2023-04-25T06:39:43;99903.80;;;3.50
65290;BMP180;51893;59.754;10.110;2023-04-25T06:42:11;99901.40;;;3.60
65290;BMP180;51893;59.754;10.110;2023-04-25T06:44:39;99902.60;;;3.60
65290;BMP180;51893;59.754;10.110;2023-04-25T06:47:07;99907.80;;;3.70
65290;BMP180;51893;59.754;10.110;2023-04-25T06:49:36;99908.00;;;3.70
65290;BMP180;51893;59.754;10.110;2023-04-25T06:52:04;99905.00;;;3.74
65290;BMP180;51893;59.754;10.110;2023-04-25T06:54:33;99910.80;;;3.80
65290;BMP180;51893;59.754;10.110;2023-04-25T06:57:02;99909.00;;;3.80
65290;BMP180;51893;59.754;10.110;2023-04-25T06:59:31;99914.20;;;3.80
65290;BMP180;51893;59.754;10.110;2023-04-25T07:02:05;99910.00;;;3.88
65290;BMP180;51893;59.754;10.110;2023-04-25T07:04:33;99911.80;;;3.90
65290;BMP180;51893;59.754;10.110;2023-04-25T07:07:03;99905.40;;;3.90
65290;BMP180;51893;59.754;10.110;2023-04-25T07:09:32;99910.60;;;3.90
65290;BMP180;51893;59.754;10.110;2023-04-25T07:12:03;99919.00;;;3.90
65290;BMP180;51893;59.754;10.110;2023-04-25T07:14:32;99913.80;;;4.00
65290;BMP180;51893;59.754;10.110;2023-04-25T07:17:01;99916.80;;;4.00
65290;BMP180;51893;59.754;10.110;2023-04-25T07:19:32;99923.20;;;4.00
65290;BMP180;51893;59.754;10.110;2023-04-25T07:22:01;99921.80;;;3.90
65290;BMP180;51893;59.754;10.110;2023-04-25T07:24:29;99923.60;;;3.96
65290;BMP180;51893;59.754;10.110;2023-04-25T07:26:58;99927.80;;;3.92
65290;BMP180;51893;59.754;10.110;2023-04-25T07:29:26;99929.40;;;4.00
65290;BMP180;51893;59.754;10.110;2023-04-25T07:31:58;99930.40;;;4.00
65290;BMP180;51893;59.754;10.110;2023-04-25T07:34:29;99931.00;;;3.94
65290;BMP180;51893;59.754;10.110;2023-04-25T07:36:59;99936.60;;;3.90
65290;BMP180;51893;59.754;10.110;2023-04-25T07:39:29;99938.20;;;3.90
65290;BMP180;51893;59.754;10.110;2023-04-25T07:41:57;99943.60;;;3.90
65290;BMP180;51893;59.754;10.110;2023-04-25T07:44:27;99947.80;;;3.90
65290;BMP180;51893;59.754;10.110;2023-04-25T07:46:55;99950.40;;;3.90
65290;BMP180;51893;59.754;10.110;2023-04-25T07:49:23;99948.00;;;3.90
65290;BMP180;51893;59.754;10.110;2023-04-25T07:51:51;99951.60;;;3.90
65290;BMP180;51893;59.754;10.110;2023-04-25T07:54:19;99958.00;;;3.90
65290;BMP180;51893;59.754;10.110;2023-04-25T07:56:48;99961.20;;;3.82
65290;BMP180;51893;59.754;10.110;2023-04-25T07:59:20;99961.80;;;3.80
65290;BMP180;51893;59.754;10.110;2023-04-25T08:01:50;99963.40;;;3.80
65290;BMP180;51893;59.754;10.110;2023-04-25T08:04:18;99967.60;;;3.80
65290;BMP180;51893;59.754;10.110;2023-04-25T08:06:47;99966.00;;;3.80
65290;BMP180;51893;59.754;10.110;2023-04-25T08:09:17;99965.00;;;3.78
65290;BMP180;51893;59.754;10.110;2023-04-25T08:11:46;99965.40;;;3.70
65290;BMP180;51893;59.754;10.110;2023-04-25T08:14:14;99970.60;;;3.70
65290;BMP180;51893;59.754;10.110;2023-04-25T08:16:43;99964.20;;;3.70
65290;BMP180;51893;59.754;10.110;2023-04-25T08:19:11;99968.60;;;3.70
65290;BMP180;51893;59.754;10.110;2023-04-25T08:21:39;99973.60;;;3.70
65290;BMP180;51893;59.754;10.110;2023-04-25T08:24:08;99975.80;;;3.70
65290;BMP180;51893;59.754;10.110;2023-04-25T08:26:39;99970.80;;;3.70
65290;BMP180;51893;59.754;10.110;2023-04-25T08:29:08;99974.20;;;3.60
65290;BMP180;51893;59.754;10.110;2023-04-25T08:31:37;99979.80;;;3.60
65290;BMP180;51893;59.754;10.110;2023-04-25T08:34:05;99977.80;;;3.60
65290;BMP180;51893;59.754;10.110;2023-04-25T08:36:33;99981.80;;;3.60
65290;BMP180;51893;59.754;10.110;2023-04-25T08:39:07;99987.80;;;3.60
65290;BMP180;51893;59.754;10.110;2023-04-25T08:41:37;99985.60;;;3.60
65290;BMP180;51893;59.754;10.110;2023-04-25T08:44:10;99991.20;;;3.70
65290;BMP180;51893;59.754;10.110;2023-04-25T08:46:39;99990.60;;;3.70
65290;BMP180;51893;59.754;10.110;2023-04-25T08:49:13;99990.60;;;3.72
65290;BMP180;51893;59.754;10.110;2023-04-25T08:51:45;99988.60;;;3.82
65290;BMP180;51893;59.754;10.110;2023-04-25T08:54:15;99986.20;;;3.90
65290;BMP180;51893;59.754;10.110;2023-04-25T08:57:02;99990.60;;;4.00
65290;BMP180;51893;59.754;10.110;2023-04-25T08:59:32;99992.00;;;4.10
65290;BMP180;51893;59.754;10.110;2023-04-25T09:02:07;99991.80;;;4.10
65290;BMP180;51893;59.754;10.110;2023-04-25T09:04:39;99989.20;;;4.20
65290;BMP180;51893;59.754;10.110;2023-04-25T09:07:09;99995.20;;;4.24
65290;BMP180;51893;59.754;10.110;2023-04-25T09:09:40;99992.60;;;4.30
65290;BMP180;51893;59.754;10.110;2023-04-25T09:12:10;99996.20;;;4.30
65290;BMP180;51893;59.754;10.110;2023-04-25T09:14:38;99992.20;;;4.30
65290;BMP180;51893;59.754;10.110;2023-04-25T09:17:13;100001.40;;;4.30
65290;BMP180;51893;59.754;10.110;2023-04-25T09:19:42;100007.80;;;4.30
65290;BMP180;51893;59.754;10.110;2023-04-25T09:22:12;100006.00;;;4.38
65290;BMP180;51893;59.754;10.110;2023-04-25T09:24:45;100012.40;;;4.40
65290;BMP180;51893;59.754;10.110;2023-04-25T09:27:19;100012.00;;;4.50
65290;BMP180;51893;59.754;10.110;2023-04-25T09:30:02;100014.80;;;4.50
65290;BMP180;51893;59.754;10.110;2023-04-25T09:32:31;100014.60;;;4.50
65290;BMP180;51893;59.754;10.110;2023-04-25T09:35:01;100016.00;;;4.50
65290;BMP180;51893;59.754;10.110;2023-04-25T09:37:31;100014.40;;;4.56
65290;BMP180;51893;59.754;10.110;2023-04-25T09:40:06;100022.40;;;4.60
65290;BMP180;51893;59.754;10.110;2023-04-25T09:42:35;100023.60;;;4.64
65290;BMP180;51893;59.754;10.110;2023-04-25T09:45:07;100027.20;;;4.68
65290;BMP180;51893;59.754;10.110;2023-04-25T09:47:37;100024.60;;;4.60
65290;BMP180;51893;59.754;10.110;2023-04-25T09:50:15;100034.20;;;4.58
65290;BMP180;51893;59.754;10.110;2023-04-25T09:52:44;100034.60;;;4.50
65290;BMP180;51893;59.754;10.110;2023-04-25T09:55:12;100034.20;;;4.50
65290;BMP180;51893;59.754;10.110;2023-04-25T09:57:41;100036.80;;;4.52
65290;BMP180;51893;59.754;10.110;2023-04-25T10:00:18;100036.60;;;4.60
65290;BMP180;51893;59.754;10.110;2023-04-25T10:02:48;100035.80;;;4.60
65290;BMP180;51893;59.754;10.110;2023-04-25T10:05:18;100037.60;;;4.66
65290;BMP180;51893;59.754;10.110;2023-04-25T10:07:47;100036.80;;;4.60
65290;BMP180;51893;59.754;10.110;2023-04-25T10:10:16;100037.80;;;4.70
65290;BMP180;51893;59.754;10.110;2023-04-25T10:12:51;100037.80;;;4.78
65290;BMP180;51893;59.754;10.110;2023-04-25T10:15:24;100035.20;;;4.80
65290;BMP180;51893;59.754;10.110;2023-04-25T10:17:53;100041.20;;;4.80
65290;BMP180;51893;59.754;10.110;2023-04-25T10:20:22;100048.20;;;4.80
65290;BMP180;51893;59.754;10.110;2023-04-25T10:22:54;100045.40;;;4.84
65290;BMP180;51893;59.754;10.110;2023-04-25T10:25:24;100051.00;;;4.90
65290;BMP180;51893;59.754;10.110;2023-04-25T10:27:54;100046.00;;;4.90
65290;BMP180;51893;59.754;10.110;2023-04-25T10:30:25;100046.60;;;4.88
65290;BMP180;51893;59.754;10.110;2023-04-25T10:32:55;100060.40;;;4.90
65290;BMP180;51893;59.754;10.110;2023-04-25T10:35:26;100058.00;;;4.90
65290;BMP180;51893;59.754;10.110;2023-04-25T10:38:05;100058.40;;;4.90
65290;BMP180;51893;59.754;10.110;2023-04-25T10:40:34;100058.00;;;5.00
65290;BMP180;51893;59.754;10.110;2023-04-25T10:43:37;100065.00;;;5.00
65290;BMP180;51893;59.754;10.110;2023-04-25T10:46:30;100067.60;;;5.04
65290;BMP180;51893;59.754;10.110;2023-04-25T10:49:03;100064.40;;;5.10
65290;BMP180;51893;59.754;10.110;2023-04-25T10:51:34;100070.00;;;5.18
65290;BMP180;51893;59.754;10.110;2023-04-25T10:54:23;100075.80;;;5.20
65290;BMP180;51893;59.754;10.110;2023-04-25T10:56:53;100083.80;;;5.20
65290;BMP180;51893;59.754;10.110;2023-04-25T10:59:25;100084.20;;;5.22
65290;BMP180;51893;59.754;10.110;2023-04-25T11:01:54;100086.00;;;5.38
65290;BMP180;51893;59.754;10.110;2023-04-25T11:04:32;100082.00;;;5.46
65290;BMP180;51893;59.754;10.110;2023-04-25T11:07:52;100083.20;;;5.50
65290;BMP180;51893;59.754;10.110;2023-04-25T11:10:34;100074.20;;;5.50
65290;BMP180;51893;59.754;10.110;2023-04-25T11:13:07;100081.00;;;5.50
65290;BMP180;51893;59.754;10.110;2023-04-25T11:15:37;100085.00;;;5.48
65290;BMP180;51893;59.754;10.110;2023-04-25T11:18:04;100088.20;;;5.50
65290;BMP180;51893;59.754;10.110;2023-04-25T11:20:32;100086.00;;;5.40
65290;BMP180;51893;59.754;10.110;2023-04-25T11:23:00;100093.20;;;5.50
65290;BMP180;51893;59.754;10.110;2023-04-25T11:25:30;100098.20;;;5.50
65290;BMP180;51893;59.754;10.110;2023-04-25T11:28:02;100087.00;;;5.50
65290;BMP180;51893;59.754;10.110;2023-04-25T11:30:31;100099.80;;;5.50
65290;BMP180;51893;59.754;10.110;2023-04-25T11:33:02;100103.80;;;5.54
65290;BMP180;51893;59.754;10.110;2023-04-25T11:35:31;100105.40;;;5.60
65290;BMP180;51893;59.754;10.110;2023-04-25T11:37:59;100103.00;;;5.50
65290;BMP180;51893;59.754;10.110;2023-04-25T11:40:30;100107.40;;;5.60
65290;BMP180;51893;59.754;10.110;2023-04-25T11:43:00;100111.60;;;5.60
65290;BMP180;51893;59.754;10.110;2023-04-25T11:45:29;100111.80;;;5.68
65290;BMP180;51893;59.754;10.110;2023-04-25T11:47:59;100108.40;;;5.70
65290;BMP180;51893;59.754;10.110;2023-04-25T11:50:32;100110.00;;;5.80
65290;BMP180;51893;59.754;10.110;2023-04-25T11:53:02;100116.00;;;5.80
65290;BMP180;51893;59.754;10.110;2023-04-25T11:55:33;100119.80;;;5.80
65290;BMP180;51893;59.754;10.110;2023-04-25T11:58:04;100124.40;;;5.80
65290;BMP180;51893;59.754;10.110;2023-04-25T12:00:33;100128.40;;;5.72
65290;BMP180;51893;59.754;10.110;2023-04-25T12:03:01;100136.00;;;5.70
65290;BMP180;51893;59.754;10.110;2023-04-25T12:05:31;100134.40;;;5.68
65290;BMP180;51893;59.754;10.110;2023-04-25T12:08:16;100139.00;;;5.70
65290;BMP180;51893;59.754;10.110;2023-04-25T12:10:45;100136.20;;;5.86
65290;BMP180;51893;59.754;10.110;2023-04-25T12:13:32;100142.20;;;5.90
65290;BMP180;51893;59.754;10.110;2023-04-25T12:16:01;100145.80;;;6.00
65290;BMP180;51893;59.754;10.110;2023-04-25T12:18:29;100140.20;;;6.10
65290;BMP180;51893;59.754;10.110;2023-04-25T12:20:58;100139.40;;;6.20
65290;BMP180;51893;59.754;10.110;2023-04-25T12:23:28;100128.40;;;6.40
65290;BMP180;51893;59.754;10.110;2023-04-25T12:25:58;100146.80;;;6.50
65290;BMP180;51893;59.754;10.110;2023-04-25T12:28:26;100142.60;;;6.60
65290;BMP180;51893;59.754;10.110;2023-04-25T12:31:02;100147.00;;;6.60
65290;BMP180;51893;59.754;10.110;2023-04-25T12:33:39;100155.80;;;6.50
65290;BMP180;51893;59.754;10.110;2023-04-25T12:36:08;100153.20;;;6.50
65290;BMP180;51893;59.754;10.110;2023-04-25T12:38:41;100161.60;;;6.46
65290;BMP180;51893;59.754;10.110;2023-04-25T12:41:09;100166.20;;;6.50
65290;BMP180;51893;59.754;10.110;2023-04-25T12:43:38;100166.40;;;6.50
65290;BMP180;51893;59.754;10.110;2023-04-25T12:46:07;100164.20;;;6.50
65290;BMP180;51893;59.754;10.110;2023-04-25T12:48:36;100163.20;;;6.54
65290;BMP180;51893;59.754;10.110;2023-04-25T12:51:05;100168.80;;;6.60
65290;BMP180;51893;59.754;10.110;2023-04-25T12:53:34;100174.60;;;6.66
65290;BMP180;51893;59.754;10.110;2023-04-25T12:56:08;100181.80;;;6.60
65290;BMP180;51893;59.754;10.110;2023-04-25T12:58:36;100189.00;;;6.50
65290;BMP180;51893;59.754;10.110;2023-04-25T13:01:04;100187.40;;;6.40
65290;BMP180;51893;59.754;10.110;2023-04-25T13:03:33;100192.80;;;6.36
65290;BMP180;51893;59.754;10.110;2023-04-25T13:06:03;100186.60;;;6.30
65290;BMP180;51893;59.754;10.110;2023-04-25T13:08:32;100193.00;;;6.20
65290;BMP180;51893;59.754;10.110;2023-04-25T13:11:00;100185.60;;;6.20
65290;BMP180;51893;59.754;10.110;2023-04-25T13:13:28;100189.60;;;6.28
65290;BMP180;51893;59.754;10.110;2023-04-25T13:15:58;100189.80;;;6.30
65290;BMP180;51893;59.754;10.110;2023-04-25T13:18:30;100193.40;;;6.30
65290;BMP180;51893;59.754;10.110;2023-04-25T13:21:00;100194.80;;;6.30
65290;BMP180;51893;59.754;10.110;2023-04-25T13:23:29;100198.40;;;6.34
65290;BMP180;51893;59.754;10.110;2023-04-25T13:25:58;100199.20;;;6.30
65290;BMP180;51893;59.754;10.110;2023-04-25T13:28:33;100203.00;;;6.30
65290;BMP180;51893;59.754;10.110;2023-04-25T13:31:01;100196.80;;;6.30
65290;BMP180;51893;59.754;10.110;2023-04-25T13:33:29;100195.20;;;6.30
65290;BMP180;51893;59.754;10.110;2023-04-25T13:35:57;100198.80;;;6.40
65290;BMP180;51893;59.754;10.110;2023-04-25T13:38:26;100196.80;;;6.60
65290;BMP180;51893;59.754;10.110;2023-04-25T13:40:53;100197.60;;;6.70
65290;BMP180;51893;59.754;10.110;2023-04-25T13:43:22;100200.20;;;6.70
65290;BMP180;51893;59.754;10.110;2023-04-25T13:45:50;100200.00;;;6.80
65290;BMP180;51893;59.754;10.110;2023-04-25T13:48:19;100200.40;;;6.86
65290;BMP180;51893;59.754;10.110;2023-04-25T13:50:48;100212.60;;;6.88
65290;BMP180;51893;59.754;10.110;2023-04-25T13:53:15;100207.00;;;6.90
65290;BMP180;51893;59.754;10.110;2023-04-25T13:55:43;100211.00;;;6.90
65290;BMP180;51893;59.754;10.110;2023-04-25T13:58:13;100209.40;;;7.00
65290;BMP180;51893;59.754;10.110;2023-04-25T14:00:42;100209.20;;;7.10
65290;BMP180;51893;59.754;10.110;2023-04-25T14:03:11;100209.80;;;7.10
65290;BMP180;51893;59.754;10.110;2023-04-25T14:05:38;100213.40;;;7.16
65290;BMP180;51893;59.754;10.110;2023-04-25T14:08:09;100220.40;;;7.10
65290;BMP180;51893;59.754;10.110;2023-04-25T14:10:44;100223.60;;;7.10
65290;BMP180;51893;59.754;10.110;2023-04-25T14:13:12;100220.40;;;7.20
65290;BMP180;51893;59.754;10.110;2023-04-25T14:15:49;100228.80;;;7.30
65290;BMP180;51893;59.754;10.110;2023-04-25T14:18:20;100231.00;;;7.32
65290;BMP180;51893;59.754;10.110;2023-04-25T14:20:49;100228.20;;;7.30